Time;durP1;ratioP1;P1;durP2;ratioP2;P2;SDS_P1;SDS_P2;PMS_P1;PMS_P2;Temp;Humidity;BMP_temperature;BMP_pressure;BME280_temperature;BME280_humidity;BME280_pressure;Samples;Min_cycle;Max_cycle;Signal;HPM_P1;HPM_P2
2022/02/04 00:24:35;;;;;;;221.82;129.63;;;25.60;2201.60;;;;;;5027581;28;20464;-77
2022/02/04 00:27:08;;;;;;;228.70;128.85;;;25.60;2201.60;;;;;;5014939;28;20036;-77
2022/02/04 00:29:46;;;;;;;215.27;127.15;;;25.60;2201.60;;;;;;5025840;28;20026;-77
2022/02/04 00:32:12;;;;;;;300.33;177.75;;;25.60;2201.60;;;;;;5026518;28;20025;-77
2022/02/04 00:34:45;;;;;;;355.90;199.80;;;0.90;2201.60;;;;;;5022271;28;20045;-76
2022/02/04 00:37:31;;;;;;;262.30;154.70;;;0.90;2201.60;;;;;;5020319;28;20022;-77
2022/02/04 00:40:06;;;;;;;249.15;156.25;;;0.90;2201.60;;;;;;5028989;28;20263;-77
2022/02/04 00:42:32;;;;;;;264.10;170.18;;;0.90;2201.60;;;;;;5026185;28;20614;-77
2022/02/04 00:45:12;;;;;;;239.07;147.77;;;0.80;2201.60;;;;;;5031729;28;20037;-76
2022/02/04 00:47:44;;;;;;;249.07;150.30;;;0.70;2201.60;;;;;;5026677;28;20461;-76
2022/02/04 00:50:25;;;;;;;224.52;135.15;;;0.70;2201.60;;;;;;5021418;28;20088;-77
2022/02/04 00:53:05;;;;;;;215.25;134.18;;;0.60;2201.60;;;;;;5027116;28;20032;-77
2022/02/04 00:55:47;;;;;;;210.70;130.77;;;0.70;2201.60;;;;;;5022883;28;20033;-77
2022/02/04 01:28:24;;;;;;;137.68;82.00;;;0.50;2201.60;;;;;;5029140;28;20543;-77
2022/02/04 01:30:51;;;;;;;125.63;76.68;;;0.40;2201.60;;;;;;5022878;28;20037;-77
2022/02/04 01:33:17;;;;;;;125.85;77.72;;;0.40;2201.60;;;;;;5057461;28;20029;-76
2022/02/04 01:35:42;;;;;;;129.68;79.60;;;0.40;2201.60;;;;;;5021906;28;20044;-78
2022/02/04 01:38:08;;;;;;;118.32;79.47;;;0.40;2201.60;;;;;;5015776;28;20388;-76
2022/02/04 01:40:34;;;;;;;114.13;74.18;;;0.40;2201.60;;;;;;5012658;28;20472;-76
2022/02/04 01:43:00;;;;;;;116.90;74.93;;;0.40;2201.60;;;;;;5021663;28;20506;-76
2022/02/04 01:45:26;;;;;;;128.25;76.28;;;0.40;2201.60;;;;;;5016976;28;20050;-77
2022/02/04 01:47:57;;;;;;;122.07;79.15;;;0.30;2201.60;;;;;;5025485;28;20453;-77
2022/02/04 01:50:25;;;;;;;134.57;85.60;;;0.30;2201.60;;;;;;5018520;28;20030;-77
2022/02/04 01:52:51;;;;;;;134.93;86.68;;;0.20;2201.60;;;;;;5026668;28;20034;-76
2022/02/04 01:55:17;;;;;;;145.15;92.43;;;0.30;2201.60;;;;;;5012176;28;20037;-77
2022/02/04 01:57:43;;;;;;;138.07;84.97;;;0.30;2201.60;;;;;;5021736;28;20068;-76
2022/02/04 02:00:10;;;;;;;141.48;82.20;;;0.30;2201.60;;;;;;5029804;28;20048;-76
2022/02/04 02:02:36;;;;;;;138.23;82.85;;;0.30;2201.60;;;;;;5030316;28;20109;-76
2022/02/04 02:05:01;;;;;;;128.82;79.70;;;0.30;2201.60;;;;;;5030992;28;20120;-77
2022/02/04 02:07:29;;;;;;;139.45;84.38;;;0.30;2201.60;;;;;;5030383;28;20024;-77
2022/02/04 02:12:24;;;;;;;158.90;95.15;;;0.30;2201.60;;;;;;5014916;28;20112;-77
2022/02/04 02:15:01;;;;;;;137.98;85.63;;;0.30;2201.60;;;;;;5026608;28;20092;-77
2022/02/04 02:45:21;;;;;;;139.45;80.43;;;;;;;;;;5005486;28;20088;-76
2022/02/04 02:50:59;;;;;;;138.90;78.93;;;;;;;;;;5021399;28;20121;-78
2022/02/04 02:59:01;;;;;;;142.70;85.10;;;;;;;;;;5015045;28;20026;-75
2022/02/04 03:01:28;;;;;;;146.68;83.50;;;;;;;;;;5026470;28;20051;-77
2022/02/04 03:03:57;;;;;;;132.23;78.20;;;;;;;;;;5032714;28;20021;-77
2022/02/04 03:06:23;;;;;;;123.38;74.10;;;;;;;;;;5034010;28;20547;-76
2022/02/04 03:08:49;;;;;;;110.70;69.25;;;;;;;;;;5014919;28;20113;-77
2022/02/04 03:11:15;;;;;;;112.15;68.55;;;;;;;;;;5014598;28;20026;-77
2022/02/04 03:13:42;;;;;;;116.30;68.72;;;;;;;;;;5015314;28;20464;-77
2022/02/04 03:16:11;;;;;;;107.40;63.58;;;;;;;;;;5030905;28;20083;-77
2022/02/04 03:18:38;;;;;;;110.90;65.13;;;;;;;;;;5028649;28;20021;-77
2022/02/04 03:21:11;;;;;;;105.07;57.17;;;;;;;;;;5032990;28;20024;-76
2022/02/04 03:23:39;;;;;;;93.85;52.15;;;;;;;;;;5031940;28;20022;-76
2022/02/04 03:26:15;;;;;;;83.32;49.47;;;;;;;;;;5032444;28;20024;-76
2022/02/04 03:28:41;;;;;;;81.72;49.42;;;;;;;;;;5027806;28;20022;-76
2022/02/04 03:31:08;;;;;;;63.97;42.65;;;;;;;;;;5031203;28;20017;-76
2022/02/04 03:33:35;;;;;;;88.38;53.95;;;;;;;;;;5027381;28;20025;-77
2022/02/04 03:36:01;;;;;;;79.65;52.42;;;;;;;;;;5029211;28;20502;-76
2022/02/04 03:38:27;;;;;;;98.18;56.40;;;;;;;;;;5032323;28;20013;-77
2022/02/04 03:40:53;;;;;;;54.75;34.65;;;;;;;;;;5032326;28;20385;-76
2022/02/04 03:43:19;;;;;;;49.35;29.00;;;;;;;;;;5032703;28;20060;-80
2022/02/04 03:45:45;;;;;;;53.40;28.42;;;;;;;;;;5032277;28;20045;-76
2022/02/04 03:48:11;;;;;;;51.38;29.05;;;;;;;;;;5028967;28;20034;-77
2022/02/04 03:50:37;;;;;;;44.85;28.08;;;;;;;;;;5026201;28;20041;-76
2022/02/04 03:53:05;;;;;;;46.55;28.05;;;;;;;;;;5026484;28;20847;-77
2022/02/04 03:55:32;;;;;;;50.33;30.15;;;;;;;;;;5032189;28;20025;-77
2022/02/04 03:57:58;;;;;;;56.25;32.75;;;;;;;;;;5027287;28;20014;-76
2022/02/04 04:00:24;;;;;;;52.22;31.38;;;;;;;;;;5020639;28;20479;-76
2022/02/04 04:02:50;;;;;;;63.05;37.78;;;;;;;;;;5031834;28;20095;-76
2022/02/04 04:05:16;;;;;;;59.30;33.60;;;;;;;;;;5031502;28;20028;-76
2022/02/04 04:07:48;;;;;;;57.22;33.15;;;;;;;;;;5031488;28;20026;-76
2022/02/04 04:10:24;;;;;;;57.78;33.67;;;;;;;;;;5025964;28;20022;-78
2022/02/04 04:12:50;;;;;;;60.55;35.72;;;;;;;;;;5025557;28;20103;-79
2022/02/04 04:15:17;;;;;;;60.83;36.22;;;;;;;;;;5031658;28;20069;-77
2022/02/04 04:17:45;;;;;;;60.22;36.08;;;;;;;;;;5031944;28;20009;-77
2022/02/04 04:20:16;;;;;;;68.82;41.03;;;;;;;;;;5030974;28;20026;-77
2022/02/04 04:22:42;;;;;;;61.65;38.33;;;;;;;;;;5030759;28;20491;-77
2022/02/04 04:25:09;;;;;;;73.00;37.95;;;;;;;;;;5031700;28;20080;-77
2022/02/04 04:27:35;;;;;;;70.05;41.28;;;;;;;;;;5030095;28;20029;-76
2022/02/04 04:30:02;;;;;;;65.10;38.03;;;;;;;;;;5025343;28;20049;-76
2022/02/04 04:32:28;;;;;;;57.95;33.92;;;;;;;;;;5031716;28;20026;-76
2022/02/04 04:34:54;;;;;;;62.38;35.92;;;;;;;;;;5031346;28;20036;-77
2022/02/04 04:37:21;;;;;;;68.38;39.85;;;;;;;;;;5031485;28;20060;-76
2022/02/04 04:42:19;;;;;;;65.25;37.45;;;;;;;;;;5029623;28;20120;-77
2022/02/04 04:45:08;;;;;;;74.78;44.92;;;;;;;;;;5024406;28;20038;-77
2022/02/04 05:28:55;;;;;;;57.92;35.35;;;;;;;;;;5027180;28;20029;-78
2022/02/04 05:31:21;;;;;;;;;;;;;;;;;;5028393;28;20025;-77
2022/02/04 05:33:49;;;;;;;75.53;39.80;;;;;;;;;;5029013;28;19905;-77
2022/02/04 05:36:15;;;;;;;38.45;22.02;;;;;;;;;;5024556;28;20091;-77
2022/02/04 05:38:41;;;;;;;38.35;25.35;;;;;;;;;;5023074;28;20029;-77
2022/02/04 05:41:09;;;;;;;39.53;25.98;;;;;;;;;;5027835;28;20062;-77
2022/02/04 05:43:39;;;;;;;32.45;19.90;;;;;;;;;;5044944;28;20025;-77
2022/02/04 05:46:29;;;;;;;33.28;23.10;;;;;;;;;;5029347;28;20044;-76
2022/02/04 05:48:56;;;;;;;39.63;23.10;;;;;;;;;;5026433;28;20033;-76
2022/02/04 06:12:23;;;;;;;53.13;32.15;;;;;;;;;;5031916;28;20022;-77
2022/02/04 06:22:40;;;;;;;69.10;42.63;;;;;;;;;;5032266;28;20542;-77
2022/02/04 06:25:11;;;;;;;86.07;54.55;;;;;;;;;;5030677;28;20117;-77
2022/02/04 06:27:37;;;;;;;67.45;44.00;;;;;;;;;;5027859;28;20105;-79
2022/02/04 06:30:05;;;;;;;77.07;45.45;;;;;;;;;;5025689;28;20034;-79
2022/02/04 06:32:31;;;;;;;79.97;48.75;;;;;;;;;;5031917;28;20060;-79
2022/02/04 06:34:59;;;;;;;85.45;50.90;;;;;;;;;;5032243;28;20116;-79
2022/02/04 06:37:25;;;;;;;74.05;47.97;;;;;;;;;;5021761;28;20480;-77
2022/02/04 06:39:51;;;;;;;134.75;80.22;;;;;;;;;;5033630;28;20021;-76
2022/02/04 06:42:22;;;;;;;153.52;91.95;;;;;;;;;;5015349;28;20551;-77
2022/02/04 06:44:48;;;;;;;169.55;100.95;;;;;;;;;;5026528;28;20026;-76
2022/02/04 06:47:14;;;;;;;149.38;85.80;;;;;;;;;;5030800;28;20376;-77
2022/02/04 06:49:40;;;;;;;141.45;86.32;;;;;;;;;;5033016;28;20044;-77
2022/02/04 06:52:06;;;;;;;129.48;80.43;;;;;;;;;;5032588;28;20468;-81
2022/02/04 06:54:32;;;;;;;119.00;74.95;;;;;;;;;;5033541;28;20033;-78
2022/02/04 06:56:58;;;;;;;127.53;80.97;;;;;;;;;;5033727;28;20025;-77
2022/02/04 06:59:24;;;;;;;99.13;61.97;;;;;;;;;;5032511;28;20041;-77
2022/02/04 07:01:50;;;;;;;91.30;55.83;;;;;;;;;;5029083;28;20033;-86
2022/02/04 07:04:16;;;;;;;92.97;56.22;;;;;;;;;;5027836;28;20524;-78
2022/02/04 07:06:51;;;;;;;86.90;51.50;;;;;;;;;;5025872;28;20052;-78
2022/02/04 07:17:10;;;;;;;72.18;46.80;;;;;;;;;;5031989;28;20037;-79
2022/02/04 07:19:46;;;;;;;84.88;53.67;;;;;;;;;;5027303;28;20021;-80
2022/02/04 07:22:20;;;;;;;79.50;53.35;;;;;;;;;;5030042;28;20017;-80
2022/02/04 07:24:47;;;;;;;82.43;49.80;;;;;;;;;;5028383;28;20033;-79
2022/02/04 07:27:13;;;;;;;82.85;50.90;;;;;;;;;;5019179;28;20022;-77
2022/02/04 07:29:40;;;;;;;90.10;56.42;;;;;;;;;;5025154;28;20149;-77
2022/02/04 07:32:12;;;;;;;81.50;53.80;;;;;;;;;;5022147;28;20087;-78
2022/02/04 07:35:01;;;;;;;85.57;52.42;;;;;;;;;;5031058;28;20025;-77
2022/02/04 07:42:59;;;;;;;78.03;47.08;;;;;;;;;;5030764;28;20128;-84
2022/02/04 07:45:25;;;;;;;65.80;42.47;;;;;;;;;;5017210;28;20046;-80
2022/02/04 07:47:51;;;;;;;69.50;44.38;;;;;;;;;;5028227;28;20072;-78
2022/02/04 07:50:20;;;;;;;79.55;49.67;;;;;;;;;;5031955;28;20018;-81
2022/02/04 07:52:50;;;;;;;87.38;54.75;;;;;;;;;;5023323;28;20026;-79
2022/02/04 07:55:17;;;;;;;104.32;68.78;;;;;;;;;;5027127;28;20038;-78
2022/02/04 07:57:44;;;;;;;141.10;87.85;;;;;;;;;;5013563;28;20018;-80
2022/02/04 08:00:14;;;;;;;146.27;89.68;;;;;;;;;;5032009;28;20025;-79
2022/02/04 08:02:41;;;;;;;155.35;97.47;;;;;;;;;;5025244;28;20157;-83
2022/02/04 08:05:10;;;;;;;149.55;90.80;;;;;;;;;;5028668;28;20029;-82
2022/02/04 08:07:52;;;;;;;114.32;77.40;;;;;;;;;;5027557;28;20388;-79
2022/02/04 08:15:57;;;;;;;119.22;75.70;;;;;;;;;;5031659;28;20049;-81
2022/02/04 08:26:19;;;;;;;98.15;64.10;;;;;;;;;;5030364;28;20030;-79
2022/02/04 08:46:35;;;;;;;90.85;57.78;;;;;;;;;;5025683;28;20021;-78
2022/02/04 08:48:02;;;;;;;83.78;52.05;;;;;;;;;;5026227;28;20040;-79
2022/02/04 08:53:08;;;;;;;95.25;62.03;;;;;;;;;;5012973;28;20030;-77
2022/02/04 08:55:47;;;;;;;135.45;74.60;;;;;;;;;;5025698;28;20029;-79
2022/02/04 09:01:21;;;;;;;84.00;51.95;;;;;;;;;;5031566;28;20034;-77
2022/02/04 09:06:17;;;;;;;96.75;62.67;;;;;;;;;;5018787;28;20419;-78
2022/02/04 09:09:06;;;;;;;87.10;55.97;;;;;;;;;;5013214;28;20022;-77
2022/02/04 09:19:22;;;;;;;79.93;50.70;;;;;;;;;;5019006;28;20104;-77
2022/02/04 09:24:24;;;;;;;82.20;50.33;;;;;;;;;;5024999;28;20488;-79
2022/02/04 09:26:53;;;;;;;66.28;44.50;;;;;;;;;;5018785;28;20092;-78
2022/02/04 09:29:19;;;;;;;75.45;46.15;;;;;;;;;;5028288;28;20023;-79
2022/02/04 09:31:45;;;;;;;70.85;46.40;;;;;;;;;;5028144;28;20045;-78
2022/02/04 09:34:11;;;;;;;62.50;40.15;;;;;;;;;;5028909;28;20476;-79
2022/02/04 09:36:38;;;;;;;53.85;36.55;;;;;;;;;;5002299;28;20124;-78
2022/02/04 09:39:08;;;;;;;66.30;42.33;;;;;;;;;;5029078;28;20018;-78
2022/02/04 09:41:35;;;;;;;63.75;41.40;;;;;;;;;;5012316;28;20041;-80
2022/02/04 09:44:01;;;;;;;63.65;40.28;;;;;;;;;;5023901;28;20068;-78
2022/02/04 09:46:33;;;;;;;85.82;50.65;;;;;;;;;;5029627;28;20049;-78
2022/02/04 09:48:59;;;;;;;57.65;41.05;;;;;;;;;;5029981;28;20020;-79
2022/02/04 09:51:47;;;;;;;60.58;41.13;;;;;;;;;;5028058;28;20057;-80
2022/02/04 10:11:57;;;;;;;53.40;34.42;;;;;;;;;;5027662;28;20463;-80
2022/02/04 10:13:54;;;;;;;46.72;30.63;;;;;;;;;;5011651;28;20037;-79
2022/02/04 10:17:04;;;;;;;49.22;30.88;;;;;;;;;;5026899;28;20048;-78
2022/02/04 10:19:28;;;;;;;47.30;34.35;;;;;;;;;;5024225;28;20033;-76
2022/02/04 10:22:01;;;;;;;49.53;32.88;;;;;;;;;;5016936;28;20038;-81
2022/02/04 10:24:28;;;;;;;36.73;22.90;;;;;;;;;;5025889;28;20109;-79
2022/02/04 10:27:12;;;;;;;50.30;25.42;;;;;;;;;;5029365;28;20376;-78
2022/02/04 10:29:39;;;;;;;48.05;28.10;;;;;;;;;;5029535;28;20424;-77
2022/02/04 10:32:05;;;;;;;36.35;22.75;;;;;;;;;;5016862;28;20058;-78
2022/02/04 10:34:33;;;;;;;35.28;22.88;;;;;;;;;;5013000;28;20101;-79
2022/02/04 10:37:04;;;;;;;35.53;22.08;;;;;;;;;;5022650;28;20113;-77
2022/02/04 10:40:20;;;;;;;42.90;27.10;;;;;;;;;;5011983;28;20017;-77
2022/02/04 10:48:33;;;;;;;30.38;17.05;;;;;;;;;;5023950;28;20525;-78
2022/02/04 10:50:43;;;;;;;31.38;18.08;;;;;;;;;;5030787;28;20044;-77
2022/02/04 10:58:54;;;;;;;32.28;18.98;;;;;;;;;;5023726;28;20380;-77
2022/02/04 11:03:28;;;;;;;19.70;13.75;;;;;;;;;;5015034;28;20038;-76
2022/02/04 11:06:06;;;;;;;30.00;17.90;;;;;;;;;;5013784;28;20109;-80
2022/02/04 11:11:38;;;;;;;27.23;17.02;;;;;;;;;;5016163;28;20034;-79
2022/02/04 11:36:13;;;;;;;26.00;19.75;;;;;;;;;;5020736;28;20045;-77
2022/02/04 11:52:34;;;;;;;27.02;17.20;;;;;;;;;;5032986;28;20108;-79
2022/02/04 11:55:02;;;;;;;24.73;20.23;;;;;;;;;;5027416;28;20030;-78
2022/02/04 11:57:29;;;;;;;29.75;23.40;;;;;;;;;;5022914;28;20028;-77
2022/02/04 11:59:58;;;;;;;30.83;20.25;;;;;;;;;;5031621;28;20471;-77
2022/02/04 12:02:27;;;;;;;28.60;21.77;;;;;;;;;;5032864;28;20022;-77
2022/02/04 12:07:35;;;;;;;36.30;22.65;;;;;;;;;;5025181;28;20037;-75
2022/02/04 12:10:04;;;;;;;32.85;25.10;;;;;;;;;;5013909;28;20030;-77
2022/02/04 12:12:49;;;;;;;30.02;23.90;;;;;;;;;;5032344;28;20108;-76
2022/02/04 12:15:35;;;;;;;36.28;26.50;;;;;;;;;;5025102;28;20033;-75
2022/02/04 12:18:02;;;;;;;31.40;26.23;;;;;;;;;;5025803;28;20029;-76
2022/02/04 12:20:57;;;;;;;39.58;32.53;;;;;;;;;;5031541;28;20027;-75
2022/02/04 12:23:27;;;;;;;52.83;30.52;;;;;;;;;;5028861;28;20061;-76
2022/02/04 12:25:56;;;;;;;36.47;28.30;;;;;;;;;;5031173;28;20037;-74
2022/02/04 12:28:37;;;;;;;36.08;28.73;;;;;;;;;;5029747;28;20108;-75
2022/02/04 12:31:14;;;;;;;36.97;27.90;;;;;;;;;;5022388;28;20547;-80
2022/02/04 12:33:44;;;;;;;36.17;30.55;;;;;;;;;;5021674;28;20033;-77
2022/02/04 12:36:13;;;;;;;32.53;24.00;;;;;;;;;;5029860;28;20120;-78
2022/02/04 12:38:40;;;;;;;29.30;26.10;;;;;;;;;;5029526;28;20071;-77
2022/02/04 12:41:06;;;;;;;33.78;26.60;;;;;;;;;;5018804;28;20022;-77
2022/02/04 12:43:38;;;;;;;39.10;27.45;;;;;;;;;;5016873;28;20029;-78
2022/02/04 12:46:04;;;;;;;29.65;24.63;;;;;;;;;;5011007;28;20397;-77
2022/02/04 12:48:31;;;;;;;34.83;26.73;;;;;;;;;;5013300;28;20365;-77
2022/02/04 12:50:57;;;;;;;38.75;26.00;;;;;;;;;;5029479;28;20456;-77
2022/02/04 12:53:28;;;;;;;33.92;25.17;;;;;;;;;;5031875;28;20033;-76
2022/02/04 12:56:35;;;;;;;26.30;21.70;;;;;;;;;;5032019;28;20100;-79
2022/02/04 12:59:09;;;;;;;29.75;22.10;;;;;;;;;;5030310;28;20227;-77
2022/02/04 13:10:03;;;;;;;30.60;25.00;;;;;;;;;;5031300;28;20037;-78
2022/02/04 13:12:29;;;;;;;36.30;25.08;;;;;;;;;;5012464;28;20092;-77
2022/02/04 13:14:55;;;;;;;30.10;25.90;;;;;;;;;;5019002;28;20054;-78
2022/02/04 13:17:36;;;;;;;35.15;24.08;;;410.00;1075.20;;;;;;5017826;28;20020;-77
2022/02/04 13:20:03;;;;;;;27.13;24.23;;;;;;;;;;5015652;28;20034;-79
2022/02/04 13:22:30;;;;;;;30.50;23.63;;;;;;;;;;5018167;28;20108;-79
2022/02/04 13:25:08;;;;;;;34.28;26.42;;;410.40;1049.60;;;;;;5012286;28;20029;-78
2022/02/04 13:27:34;;;;;;;33.45;24.45;;;;;;;;;;5012593;28;20061;-77
2022/02/04 13:30:00;;;;;;;42.60;25.67;;;;;;;;;;5012326;28;20072;-76
2022/02/04 13:32:27;;;;;;;27.23;22.00;;;;;;;;;;5011957;28;20017;-77
2022/02/04 13:34:53;;;;;;;28.45;21.42;;;;;;;;;;5011066;28;20029;-78
2022/02/04 13:37:28;;;;;;;33.50;23.13;;;;;;;;;;5010545;28;20063;-76
2022/02/04 13:40:03;;;;;;;40.50;25.95;;;;;;;;;;5010785;28;20025;-78
2022/02/04 13:42:47;;;;;;;38.42;24.40;;;;;;;;;;5010783;28;20026;-78
2022/02/04 13:45:31;;;;;;;26.38;21.38;;;;;;;;;;5030323;28;20025;-77
2022/02/04 13:48:06;;;;;;;;;;;;;;;;;;5031194;28;20057;-76
2022/02/04 13:50:45;;;;;;;25.40;20.35;;;;;;;;;;5022444;28;19906;-76
2022/02/04 13:53:17;;;;;;;31.45;22.98;;;;;;;;;;5028830;28;20479;-77
2022/02/04 13:56:08;;;;;;;25.77;20.75;;;;;;;;;;5031011;28;20017;-76
2022/02/04 14:01:19;;;;;;;28.20;21.70;;;;;;;;;;5017605;28;20030;-76
2022/02/04 14:03:49;;;;;;;36.05;23.30;;;;;;;;;;5030502;28;20029;-76
2022/02/04 14:06:19;;;;;;;26.75;21.65;;;;;;;;;;5028968;28;20083;-77
2022/02/04 14:09:21;;;;;;;27.05;21.08;;;;;;;;;;5030292;28;20018;-77
2022/02/04 14:11:39;;;;;;;30.10;24.40;;;;;;;;;;5017010;28;20069;-79
2022/02/04 14:14:22;;;;;;;34.00;23.25;;;;;;;;;;5010233;28;20014;-77
2022/02/04 14:16:52;;;;;;;33.22;21.05;;;;;;;;;;5020863;28;20041;-77
2022/02/04 14:19:18;;;;;;;30.25;22.27;;;;;;;;;;5033125;28;20362;-77
2022/02/04 14:21:44;;;;;;;30.77;21.30;;;;;;;;;;5032630;28;20029;-78
2022/02/04 14:24:12;;;;;;;27.83;20.95;;;;;;;;;;5029321;28;20411;-77
2022/02/04 14:26:43;;;;;;;26.10;22.75;;;;;;;;;;5033666;28;20025;-76
2022/02/04 14:29:31;;;;;;;22.23;19.15;;;;;;;;;;5023326;28;20021;-77
2022/02/04 14:32:07;;;;;;;37.72;25.38;;;;;;;;;;5014006;28;20057;-77
2022/02/04 14:59:00;;;;;;;42.97;22.58;;;;;;;;;;5030915;28;20476;-78
2022/02/04 15:01:32;;;;;;;36.22;25.35;;;384.00;1100.80;;;;;;5031026;28;20026;-76
2022/02/04 15:06:32;;;;;;;67.03;38.10;;;;;;;;;;5031180;28;20037;-76
2022/02/04 15:08:58;;;;;;;51.58;32.95;;;;;;;;;;5019974;28;20109;-77
2022/02/04 15:11:31;;;;;;;61.67;35.72;;;;;;;;;;5021921;28;20025;-78
2022/02/04 15:13:57;;;;;;;79.80;40.13;;;;;;;;;;5021501;28;20048;-76
2022/02/04 15:16:23;;;;;;;91.03;59.05;;;;;;;;;;5014057;28;20116;-77
2022/02/04 15:18:50;;;;;;;108.75;66.68;;;;;;;;;;5020577;28;20026;-78
2022/02/04 15:21:18;;;;;;;107.55;68.32;;;;;;;;;;5027825;28;20029;-77
2022/02/04 15:23:50;;;;;;;175.75;120.93;;;;;;;;;;5012876;28;20022;-77
2022/02/04 15:26:17;;;;;;;113.13;74.93;;;;;;;;;;5012765;28;20124;-77
2022/02/04 15:28:55;;;;;;;70.55;46.72;;;;;;;;;;5033038;28;20571;-77
2022/02/04 15:33:49;;;;;;;116.22;77.40;;;;;;;;;;5033274;28;20477;-78
2022/02/04 15:36:24;;;;;;;105.53;69.15;;;;;;;;;;5032451;28;20536;-77
2022/02/04 15:38:51;;;;;;;96.50;58.78;;;;;;;;;;5031825;28;20427;-77
2022/02/04 15:41:18;;;;;;;102.97;71.18;;;;;;;;;;5031606;28;20025;-77
2022/02/04 15:43:49;;;;;;;136.18;93.65;;;;;;;;;;5021990;28;20022;-77
2022/02/04 15:46:45;;;;;;;141.85;96.97;;;;;;;;;;5031617;28;20175;-76
2022/02/04 15:49:11;;;;;;;160.85;113.78;;;;;;;;;;5027965;28;20026;-77
2022/02/04 16:04:25;;;;;;;146.27;88.18;;;;;;;;;;5016532;28;20036;-76
2022/02/04 16:06:51;;;;;;;205.20;137.98;;;;;;;;;;5024082;28;20057;-76
2022/02/04 16:09:20;;;;;;;182.70;116.45;;;;;;;;;;5025320;28;21031;-76
2022/02/04 16:17:06;;;;;;;219.20;147.57;;;;;;;;;;5022378;28;20496;-76
2022/02/04 16:19:39;;;;;;;239.63;167.23;;;;;;;;;;5030996;28;20029;-76
2022/02/04 16:22:33;;;;;;;233.70;152.53;;;;;;;;;;5013479;28;20017;-75
2022/02/04 16:30:05;;;;;;;321.25;203.82;;;;;;;;;;5030118;28;20472;-76
2022/02/04 16:32:32;;;;;;;364.45;226.05;;;;;;;;;;5030799;28;20056;-77
2022/02/04 16:35:01;;;;;;;306.70;198.30;;;179.80;2073.60;;;;;;5031973;28;20026;-75
2022/02/04 16:37:34;;;;;;;324.52;201.68;;;179.70;2252.80;;;;;;5020171;28;20033;-76
2022/02/04 16:40:14;;;;;;;294.00;190.90;;;;;;;;;;5017301;28;20033;-76
2022/02/04 16:42:41;;;;;;;259.70;175.52;;;;;;;;;;5030751;28;20084;-76
2022/02/04 16:45:07;;;;;;;265.17;174.57;;;;;;;;;;5024490;28;20520;-79
2022/02/04 16:47:33;;;;;;;292.20;177.95;;;;;;;;;;5019545;28;20057;-77
2022/02/04 16:50:01;;;;;;;246.30;156.45;;;;;;;;;;5030356;28;20088;-76
2022/02/04 16:52:31;;;;;;;220.60;148.52;;;;;;;;;;5025678;28;20015;-77
2022/02/04 16:54:57;;;;;;;229.05;158.15;;;;;;;;;;5030852;28;20070;-77
2022/02/04 16:57:25;;;;;;;206.52;136.85;;;;;;;;;;5030398;28;20022;-77
2022/02/04 16:59:56;;;;;;;192.27;126.43;;;;;;;;;;5031808;28;20032;-77
2022/02/04 17:02:22;;;;;;;186.23;123.70;;;;;;;;;;5012350;28;20022;-77
2022/02/04 17:04:49;;;;;;;160.20;105.00;;;;;;;;;;5040781;28;20025;-77
2022/02/04 17:07:22;;;;;;;186.32;124.18;;;;;;;;;;5031671;28;20044;-77
2022/02/04 17:09:50;;;;;;;208.07;136.43;;;;;;;;;;5029863;28;20021;-77
2022/02/04 17:12:28;;;;;;;182.90;119.13;;;;;;;;;;5030164;28;20032;-77
2022/02/04 17:14:55;;;;;;;183.30;126.10;;;;;;;;;;5031612;28;20028;-77
2022/02/04 17:17:24;;;;;;;178.95;108.45;;;;;;;;;;5023363;28;20025;-76
2022/02/04 17:20:13;;;;;;;171.02;115.63;;;;;;;;;;5011199;28;20040;-77
2022/02/04 17:22:40;;;;;;;201.55;126.78;;;;;;;;;;5023501;28;20021;-77
2022/02/04 17:25:09;;;;;;;175.68;117.40;;;;;;;;;;5018987;28;20607;-77
2022/02/04 17:27:36;;;;;;;149.68;101.35;;;;;;;;;;5011218;28;20428;-77
2022/02/04 17:30:04;;;;;;;171.55;114.75;;;;;;;;;;5011202;28;20105;-77
2022/02/04 17:32:30;;;;;;;188.00;124.22;;;;;;;;;;5016763;28;20021;-78
2022/02/04 17:34:57;;;;;;;154.27;106.68;;;;;;;;;;5020714;28;20022;-78
2022/02/04 17:37:23;;;;;;;141.35;94.13;;;;;;;;;;5028341;28;20071;-77
2022/02/04 17:39:52;;;;;;;134.85;88.78;;;;;;;;;;5030054;28;20056;-78
2022/02/04 17:42:23;;;;;;;123.82;85.68;;;;;;;;;;5030982;28;20502;-78
2022/02/04 17:44:50;;;;;;;126.82;80.78;;;;;;;;;;5031071;28;20040;-77
2022/02/04 17:47:16;;;;;;;141.40;94.13;;;;;;;;;;5029565;28;20099;-78
2022/02/04 17:49:54;;;;;;;153.93;99.82;;;;;;;;;;5020578;28;20022;-77
2022/02/04 17:54:58;;;;;;;140.18;92.70;;;;;;;;;;5016320;28;20110;-78
2022/02/04 17:57:38;;;;;;;129.63;81.20;;;;;;;;;;5027701;28;20029;-78
2022/02/04 18:02:43;;;;;;;133.57;86.63;;;;;;;;;;5034821;28;20029;-77
2022/02/04 18:07:44;;;;;;;153.98;99.72;;;;;;;;;;5024991;28;20030;-78
2022/02/04 18:10:10;;;;;;;114.63;70.70;;;;;;;;;;5029949;28;20040;-76
2022/02/04 18:12:37;;;;;;;90.60;61.33;;;;;;;;;;5029859;28;20018;-76
2022/02/04 18:15:04;;;;;;;90.47;60.65;;;;;;;;;;5025723;28;20033;-76
2022/02/04 18:17:30;;;;;;;105.32;71.13;;;;;;;;;;5030956;28;20419;-75
2022/02/04 18:19:56;;;;;;;98.20;65.65;;;;;;;;;;5030717;28;20373;-76
2022/02/04 18:22:22;;;;;;;112.32;76.05;;;;;;;;;;5032048;28;20030;-75
2022/02/04 18:24:48;;;;;;;118.03;77.47;;;;;;;;;;5032600;28;21322;-76
2022/02/04 18:27:15;;;;;;;118.22;77.55;;;;;;;;;;5029728;28;20099;-76
2022/02/04 18:29:45;;;;;;;114.65;75.18;;;;;;;;;;5025710;28;20033;-76
2022/02/04 18:32:13;;;;;;;108.20;70.03;;;;;;;;;;5024332;28;20025;-77
2022/02/04 18:34:39;;;;;;;102.80;69.15;;;;;;;;;;5017037;28;20125;-76
2022/02/04 18:37:06;;;;;;;106.55;71.82;;;;;;;;;;5015169;28;20512;-75
2022/02/04 18:45:18;;;;;;;129.80;82.93;;;;;;;;;;5025701;28;20474;-76
2022/02/04 18:55:42;;;;;;;100.47;66.45;;;;;;;;;;5015120;28;20034;-76
2022/02/04 18:58:10;;;;;;;92.68;60.42;;;;;;;;;;5024068;28;20056;-76
2022/02/04 19:00:36;;;;;;;95.30;65.68;;;;;;;;;;5026709;28;20037;-76
2022/02/04 19:03:06;;;;;;;94.93;63.35;;;;;;;;;;5026825;28;20018;-76
2022/02/04 19:05:37;;;;;;;113.20;76.43;;;;;;;;;;5033778;28;20068;-77
2022/02/04 19:08:12;;;;;;;116.70;74.15;;;;;;;;;;5020038;28;20023;-76
2022/02/04 19:10:39;;;;;;;98.47;61.95;;;;;;;;;;5022931;28;20112;-75
2022/02/04 19:13:11;;;;;;;91.68;62.80;;;;;;;;;;5016594;28;20461;-76
2022/02/04 19:16:01;;;;;;;98.13;60.83;;;;;;;;;;5014739;28;20057;-76
2022/02/04 19:21:04;;;;;;;96.03;64.60;;;;;;;;;;5033186;28;20041;-76
2022/02/04 19:23:30;;;;;;;87.60;60.40;;;;;;;;;;5017608;28;20018;-75
2022/02/04 19:25:59;;;;;;;87.38;54.92;;;;;;;;;;5019930;28;20105;-76
2022/02/04 19:28:27;;;;;;;89.15;57.95;;;;;;;;;;5013393;28;20415;-75
2022/02/04 19:30:55;;;;;;;89.55;56.58;;;;;;;;;;5028592;28;20040;-76
2022/02/04 19:33:22;;;;;;;90.18;60.53;;;;;;;;;;5027250;28;20021;-76
2022/02/04 19:35:49;;;;;;;102.28;62.65;;;;;;;;;;5028887;28;20397;-76
2022/02/04 19:38:15;;;;;;;99.88;63.55;;;;;;;;;;5026608;28;20025;-76
2022/02/04 19:40:44;;;;;;;106.07;70.90;;;;;;;;;;5022144;28;20033;-75
2022/02/04 19:43:10;;;;;;;111.32;73.40;;;;;;;;;;5014497;28;20022;-75
2022/02/04 19:45:46;;;;;;;117.40;73.30;;;;;;;;;;5013744;28;20145;-76
2022/02/04 19:48:23;;;;;;;110.28;73.80;;;;;;;;;;5026991;28;20032;-75
2022/02/04 19:51:05;;;;;;;104.88;63.83;;;;;;;;;;5024514;28;20092;-78
2022/02/04 20:25:57;;;;;;;101.72;67.25;;;;;;;;;;5032321;28;20041;-78
2022/02/04 20:28:24;;;;;;;96.32;64.78;;;;;;;;;;5031051;28;20029;-77
2022/02/04 20:30:50;;;;;;;109.60;71.65;;;;;;;;;;5032383;28;20491;-77
2022/02/04 20:33:16;;;;;;;86.95;56.45;;;;;;;;;;5028660;28;20083;-76
2022/02/04 20:35:43;;;;;;;74.03;49.60;;;;;;;;;;5030845;28;20494;-77
2022/02/04 20:38:11;;;;;;;92.85;62.67;;;;;;;;;;5031425;28;20021;-75
2022/02/04 20:40:39;;;;;;;97.82;59.72;;;;;;;;;;5018420;28;20037;-77
2022/02/04 20:43:06;;;;;;;81.20;51.15;;;;;;;;;;5012779;28;20539;-76
2022/02/04 20:45:32;;;;;;;100.80;62.97;;;;;;;;;;5017906;28;20054;-78
2022/02/04 20:47:58;;;;;;;100.63;64.45;;;;;;;;;;5013432;28;20037;-77
2022/02/04 20:50:25;;;;;;;101.88;67.25;;;;;;;;;;5022733;28;20030;-75
2022/02/04 20:52:52;;;;;;;107.38;68.35;;;;;;;;;;5030050;28;20609;-75
2022/02/04 20:55:19;;;;;;;105.95;69.35;;;;;;;;;;5031461;28;20029;-74
2022/02/04 20:57:48;;;;;;;95.05;60.38;;;;;;;;;;5031581;28;20021;-74
2022/02/04 21:00:24;;;;;;;88.82;63.60;;;;;;;;;;5030588;28;20053;-75
2022/02/04 21:02:50;;;;;;;87.30;58.00;;;;;;;;;;5031795;28;20018;-77
2022/02/04 21:05:17;;;;;;;76.60;54.05;;;;;;;;;;5031810;28;20045;-77
2022/02/04 21:15:26;;;;;;;79.55;56.20;;;;;;;;;;5027130;28;20088;-78
2022/02/04 21:17:52;;;;;;;83.25;56.50;;;;;;;;;;5027080;28;20021;-77
2022/02/04 21:20:19;;;;;;;79.80;53.28;;;;;;;;;;5027138;28;20120;-77